createdAt,value
2023-03-07T00:02:35.414Z,86.9
2023-03-07T00:14:35.403Z,88.3
2023-03-07T00:26:35.398Z,88.7
2023-03-07T00:38:35.334Z,89.0
2023-03-07T00:50:35.370Z,89.3
2023-03-07T01:02:35.407Z,89.6
2023-03-07T01:14:35.681Z,89.3
2023-03-07T01:26:35.385Z,89.7
2023-03-07T01:38:35.419Z,89.8
2023-03-07T01:50:35.344Z,89.4
2023-03-07T02:02:35.353Z,89.5
2023-03-07T02:14:35.396Z,89.5
2023-03-07T02:26:35.366Z,89.3
2023-03-07T02:38:36.016Z,89.4
2023-03-07T02:50:35.426Z,89.0
2023-03-07T03:02:35.424Z,88.9
2023-03-07T03:14:35.407Z,89.0
2023-03-07T03:26:35.456Z,88.2
2023-03-07T03:38:35.424Z,87.5
2023-03-07T03:50:35.407Z,87.1
2023-03-07T04:02:35.409Z,86.7
2023-03-07T04:14:35.409Z,86.8
2023-03-07T04:26:35.337Z,86.3
2023-03-07T04:38:35.381Z,86.1
2023-03-07T04:50:35.408Z,85.8
2023-03-07T05:02:35.331Z,85.3
2023-03-07T05:14:35.420Z,85.5
2023-03-07T05:26:35.409Z,85.5
2023-03-07T05:38:35.414Z,85.5
2023-03-07T05:50:35.333Z,84.8
2023-03-07T06:02:35.395Z,84.5
2023-03-07T06:14:35.412Z,84.7
2023-03-07T06:26:35.334Z,84.8
2023-03-07T06:38:35.371Z,84.6
2023-03-07T06:50:35.875Z,84.3
2023-03-07T07:02:35.441Z,83.7
2023-03-07T07:14:35.448Z,83.0
2023-03-07T07:26:35.335Z,82.9
2023-03-07T07:38:35.326Z,82.9
2023-03-07T07:50:35.389Z,82.7
2023-03-07T08:02:35.369Z,81.8
2023-03-07T08:14:35.351Z,81.1
2023-03-07T08:26:35.403Z,81.0
2023-03-07T08:38:35.359Z,79.7
2023-03-07T08:50:35.376Z,79.1
2023-03-07T09:02:35.359Z,78.7
2023-03-07T09:14:35.414Z,79.0
2023-03-07T09:26:35.442Z,77.8
2023-03-07T09:38:35.433Z,76.6
2023-03-07T09:50:35.425Z,77.2
2023-03-07T10:02:35.339Z,77.2
2023-03-07T10:14:35.884Z,77.4
2023-03-07T10:26:35.510Z,76.8
2023-03-07T10:38:35.376Z,76.4
2023-03-07T10:50:35.369Z,75.5
2023-03-07T11:02:35.492Z,75.9
2023-03-07T11:14:35.385Z,76.1
2023-03-07T11:26:35.436Z,76.0
2023-03-07T11:38:35.408Z,75.2
2023-03-07T11:50:35.373Z,75.3
2023-03-07T12:02:35.347Z,74.9
2023-03-07T12:14:35.419Z,74.9
2023-03-07T12:26:35.431Z,74.3
2023-03-07T12:38:36.517Z,73.6
2023-03-07T12:50:35.433Z,74.1
2023-03-07T13:02:35.406Z,72.7
2023-03-07T13:14:35.329Z,73.1
2023-03-07T13:26:35.407Z,72.3
2023-03-07T13:38:35.429Z,70.7
2023-03-07T13:50:35.383Z,70.3
2023-03-07T14:02:35.418Z,67.4
2023-03-07T14:14:35.410Z,66.6
2023-03-07T14:26:35.407Z,67.6
2023-03-07T14:38:35.443Z,67.5
2023-03-07T14:50:35.345Z,68.3
2023-03-07T15:02:35.321Z,68.1
2023-03-07T15:14:35.411Z,68.9
2023-03-07T15:26:35.417Z,69.6
2023-03-07T15:38:35.334Z,70.2
2023-03-07T15:50:35.430Z,71.1
2023-03-07T16:02:35.555Z,71.7
2023-03-07T16:14:35.411Z,72.2
2023-03-07T16:26:35.343Z,72.5
2023-03-07T16:38:35.337Z,74.1
2023-03-07T16:50:35.332Z,80.6
2023-03-07T17:02:35.490Z,89.5
2023-03-07T17:14:35.385Z,94.1
2023-03-07T17:26:35.333Z,95.5
2023-03-07T17:38:35.351Z,96.2
2023-03-07T17:50:35.364Z,96.3
2023-03-07T18:02:35.472Z,96.3
2023-03-07T18:14:35.742Z,96.3
2023-03-07T18:26:35.353Z,96.3
2023-03-07T18:38:35.677Z,96.3
2023-03-07T18:50:35.336Z,96.3
2023-03-07T19:02:35.404Z,96.3
2023-03-07T19:14:35.419Z,96.3
2023-03-07T19:26:35.351Z,96.3
2023-03-07T19:38:35.393Z,96.3
2023-03-07T19:50:35.378Z,96.3
2023-03-07T20:14:35.384Z,96.3
2023-03-07T20:26:35.438Z,96.3
2023-03-07T20:38:35.340Z,96.3
2023-03-07T20:50:35.443Z,96.3
2023-03-07T21:02:35.418Z,96.3
2023-03-07T21:14:35.390Z,96.3
2023-03-07T21:26:35.444Z,96.3
2023-03-07T21:38:35.417Z,100.0
2023-03-07T21:50:35.434Z,100.0
2023-03-07T22:02:35.391Z,100.0
2023-03-07T22:14:35.328Z,100.0
2023-03-07T22:26:35.328Z,100.0
2023-03-07T22:38:35.417Z,99.7
2023-03-07T22:50:35.379Z,99.3
2023-03-07T23:02:35.339Z,99.3
2023-03-07T23:14:35.429Z,99.9
2023-03-07T23:26:35.412Z,99.5
2023-03-07T23:38:35.328Z,99.8
2023-03-07T23:50:35.341Z,100.0
